createdAt,value
2022-11-25T00:02:08.424Z,1249
2022-11-25T00:07:27.202Z,1250
2022-11-25T00:12:45.944Z,1258
2022-11-25T00:18:04.753Z,1253
2022-11-25T00:23:23.227Z,1266
2022-11-25T00:28:43.614Z,1244
2022-11-25T00:34:02.391Z,1241
2022-11-25T00:39:20.871Z,1257
2022-11-25T00:44:39.659Z,1272
2022-11-25T00:50:00.402Z,1265
2022-11-25T00:55:19.194Z,1260
2022-11-25T01:00:37.666Z,1251
2022-11-25T01:05:56.608Z,1255
2022-11-25T01:11:15.096Z,1275
2022-11-25T01:16:33.887Z,1293
2022-11-25T01:21:52.377Z,1289
2022-11-25T01:27:10.710Z,1288
2022-11-25T01:32:28.992Z,1293
2022-11-25T01:37:47.456Z,1308
2022-11-25T01:43:05.963Z,1299
2022-11-25T01:48:24.428Z,1310
2022-11-25T01:53:42.933Z,1283
2022-11-25T01:59:01.723Z,1268
2022-11-25T02:04:20.182Z,1265
2022-11-25T02:09:38.952Z,1257
2022-11-25T02:14:57.487Z,1270
2022-11-25T02:20:15.936Z,1258
2022-11-25T02:25:34.438Z,1272
2022-11-25T02:30:52.969Z,1258
2022-11-25T02:36:11.164Z,1257
2022-11-25T02:41:29.635Z,1254
2022-11-25T02:46:48.153Z,1256
2022-11-25T02:52:06.615Z,1258
2022-11-25T02:57:25.394Z,1247
2022-11-25T03:02:29.310Z,1235
2022-11-25T03:07:47.950Z,1225
2022-11-25T03:13:07.048Z,1227
2022-11-25T03:18:25.573Z,1219
2022-11-25T03:23:44.317Z,1215
2022-11-25T03:29:02.822Z,1213
2022-11-25T03:34:21.340Z,1206
2022-11-25T03:39:39.791Z,1195
2022-11-25T03:44:58.296Z,1199
2022-11-25T03:50:16.295Z,1198
2022-11-25T03:55:35.016Z,1188
2022-11-25T04:00:53.857Z,1195
2022-11-25T04:06:12.553Z,1190
2022-11-25T04:11:31.355Z,1191
2022-11-25T04:16:49.854Z,1198
2022-11-25T04:22:08.262Z,1200
2022-11-25T04:27:27.126Z,1205
2022-11-25T04:32:45.888Z,1219
2022-11-25T04:38:04.395Z,1250
2022-11-25T04:43:22.863Z,1296
2022-11-25T04:48:41.367Z,1265
2022-11-25T04:53:59.588Z,1253
2022-11-25T04:59:18.057Z,1223
2022-11-25T05:04:36.799Z,1194
2022-11-25T05:09:55.994Z,1188
2022-11-25T05:15:14.745Z,1171
2022-11-25T05:20:33.221Z,1168
2022-11-25T05:25:51.737Z,1166
2022-11-25T05:31:10.552Z,1176
2022-11-25T05:36:29.161Z,1024
2022-11-25T05:41:47.677Z,1137
2022-11-25T05:47:05.897Z,1053
2022-11-25T05:52:24.373Z,912
2022-11-25T05:57:42.585Z,843
2022-11-25T06:03:01.295Z,883
2022-11-25T06:08:19.937Z,942
2022-11-25T06:13:38.682Z,967
2022-11-25T06:18:57.458Z,970
2022-11-25T06:24:15.635Z,970
2022-11-25T06:29:33.614Z,971
2022-11-25T06:34:52.072Z,968
2022-11-25T06:40:10.570Z,963
2022-11-25T06:45:29.067Z,959
2022-11-25T06:50:47.569Z,955
2022-11-25T06:56:05.741Z,956
2022-11-25T07:01:23.809Z,952
2022-11-25T07:06:42.548Z,955
2022-11-25T07:12:00.771Z,951
2022-11-25T07:17:19.543Z,958
2022-11-25T07:22:37.997Z,972
2022-11-25T07:27:56.533Z,970
2022-11-25T07:33:14.806Z,971
2022-11-25T07:38:33.165Z,969
2022-11-25T07:43:51.348Z,955
2022-11-25T07:49:09.589Z,952
2022-11-25T07:54:28.043Z,944
2022-11-25T07:59:46.822Z,934
2022-11-25T08:05:05.330Z,931
2022-11-25T08:10:24.081Z,922
2022-11-25T08:15:42.329Z,926
2022-11-25T08:21:00.710Z,913
2022-11-25T08:26:18.920Z,907
2022-11-25T08:31:37.781Z,904
2022-11-25T08:36:56.353Z,895
2022-11-25T08:42:15.114Z,884
2022-11-25T08:47:18.247Z,881
2022-11-25T08:52:37.066Z,883
2022-11-25T08:57:55.521Z,877
2022-11-25T09:03:14.050Z,873
2022-11-25T09:08:32.921Z,863
2022-11-25T09:13:51.688Z,855
2022-11-25T09:19:10.162Z,845
2022-11-25T09:24:28.243Z,845
2022-11-25T09:29:46.869Z,833
2022-11-25T09:35:05.343Z,824
2022-11-25T09:40:23.830Z,820
2022-11-25T09:45:42.341Z,818
2022-11-25T09:51:01.013Z,812
2022-11-25T09:56:19.484Z,809
2022-11-25T10:01:22.341Z,805
2022-11-25T10:06:40.332Z,801
2022-11-25T10:11:42.953Z,800
2022-11-25T10:17:01.151Z,812
2022-11-25T10:22:19.069Z,818
2022-11-25T10:27:37.896Z,836
2022-11-25T10:33:02.083Z,836
2022-11-25T10:38:20.610Z,830
2022-11-25T10:43:39.402Z,819
2022-11-25T10:48:57.854Z,812
2022-11-25T10:54:16.607Z,789
2022-11-25T10:59:43.157Z,746
2022-11-25T11:05:01.606Z,713
2022-11-25T11:10:20.117Z,699
2022-11-25T11:15:38.383Z,701
2022-11-25T11:20:56.866Z,702
2022-11-25T11:26:15.609Z,704
2022-11-25T11:31:34.356Z,721
2022-11-25T11:36:53.397Z,714
2022-11-25T11:42:12.114Z,712
2022-11-25T11:47:30.677Z,713
2022-11-25T11:52:49.420Z,710
2022-11-25T11:58:07.329Z,706
2022-11-25T12:03:25.665Z,708
2022-11-25T12:08:44.472Z,712
2022-11-25T12:14:02.965Z,732
2022-11-25T12:19:21.476Z,736
2022-11-25T12:24:40.038Z,743
2022-11-25T12:29:58.899Z,748
2022-11-25T12:35:17.683Z,740
2022-11-25T12:40:36.404Z,737
2022-11-25T12:45:55.243Z,730
2022-11-25T12:51:14.043Z,718
2022-11-25T12:56:38.307Z,715
2022-11-25T13:01:56.640Z,713
2022-11-25T13:07:15.960Z,712
2022-11-25T13:12:35.005Z,710
2022-11-25T13:17:54.706Z,710
2022-11-25T13:23:13.712Z,712
2022-11-25T13:28:32.177Z,712
2022-11-25T13:33:50.915Z,725
2022-11-25T13:39:09.743Z,738
2022-11-25T13:44:27.914Z,741
2022-11-25T13:49:30.940Z,739
2022-11-25T13:54:49.733Z,742
2022-11-25T14:00:08.467Z,734
2022-11-25T14:05:26.943Z,726
2022-11-25T14:10:45.806Z,716
2022-11-25T14:16:07.057Z,708
2022-11-25T14:21:25.908Z,709
2022-11-25T14:26:51.275Z,708
2022-11-25T14:32:09.849Z,705
2022-11-25T14:37:28.718Z,708
2022-11-25T14:42:46.697Z,738
2022-11-25T14:48:05.445Z,748
2022-11-25T14:53:24.217Z,772
2022-11-25T14:58:42.508Z,793
2022-11-25T15:04:01.015Z,776
2022-11-25T15:09:19.587Z,762
2022-11-25T15:14:38.379Z,766
2022-11-25T15:19:56.537Z,755
2022-11-25T15:25:14.759Z,751
2022-11-25T15:30:33.311Z,744
2022-11-25T15:35:51.782Z,746
2022-11-25T15:41:10.304Z,745
2022-11-25T15:46:28.501Z,738
2022-11-25T15:51:46.899Z,742
2022-11-25T15:57:05.103Z,734
2022-11-25T16:02:23.921Z,729
2022-11-25T16:07:42.009Z,733
2022-11-25T16:13:00.538Z,737
2022-11-25T16:18:38.952Z,735
2022-11-25T16:23:59.550Z,761
2022-11-25T16:29:18.329Z,779
2022-11-25T16:34:36.749Z,793
2022-11-25T16:39:56.648Z,802
2022-11-25T16:45:15.162Z,799
2022-11-25T16:50:33.131Z,794
2022-11-25T16:55:51.892Z,789
2022-11-25T17:01:10.604Z,785
2022-11-25T17:06:29.069Z,776
2022-11-25T17:11:47.537Z,779
2022-11-25T17:17:06.382Z,793
2022-11-25T17:22:24.742Z,796
2022-11-25T17:27:43.484Z,796
2022-11-25T17:33:01.420Z,790
2022-11-25T17:38:19.959Z,793
2022-11-25T17:43:38.150Z,791
2022-11-25T17:48:57.149Z,802
2022-11-25T17:54:15.659Z,826
2022-11-25T17:59:33.841Z,829
2022-11-25T18:04:52.273Z,821
2022-11-25T18:10:10.835Z,795
2022-11-25T18:15:29.345Z,806
2022-11-25T18:20:47.790Z,820
2022-11-25T18:26:06.158Z,845
2022-11-25T18:31:24.969Z,843
2022-11-25T18:36:43.259Z,832
2022-11-25T18:42:02.059Z,833
2022-11-25T18:47:20.248Z,832
2022-11-25T18:52:38.486Z,802
2022-11-25T18:57:57.276Z,787
2022-11-25T19:03:15.450Z,624
2022-11-25T19:08:34.240Z,655
2022-11-25T19:13:52.187Z,678
2022-11-25T19:19:10.900Z,697
2022-11-25T19:24:29.384Z,710
2022-11-25T19:29:47.928Z,720
2022-11-25T19:35:06.674Z,729
2022-11-25T19:40:25.421Z,748
2022-11-25T19:45:44.036Z,760
2022-11-25T19:51:02.144Z,772
2022-11-25T19:56:20.674Z,778
2022-11-25T20:01:39.490Z,801
2022-11-25T20:06:58.514Z,820
2022-11-25T20:12:17.040Z,839
2022-11-25T20:17:35.877Z,861
2022-11-25T20:22:54.317Z,872
2022-11-25T20:28:12.544Z,885
2022-11-25T20:33:31.092Z,899
2022-11-25T20:38:49.892Z,911
2022-11-25T20:44:08.372Z,933
2022-11-25T20:49:26.396Z,938
2022-11-25T20:54:44.913Z,948
2022-11-25T21:00:02.859Z,954
2022-11-25T21:05:21.343Z,957
2022-11-25T21:10:39.834Z,973
2022-11-25T21:15:58.368Z,991
2022-11-25T21:21:17.195Z,1174
2022-11-25T21:26:35.730Z,1096
2022-11-25T21:31:53.999Z,1103
2022-11-25T21:37:12.871Z,1124
2022-11-25T21:42:31.077Z,1159
2022-11-25T21:47:49.821Z,1182
2022-11-25T21:53:08.636Z,1181
2022-11-25T21:58:27.087Z,1201
2022-11-25T22:03:45.600Z,1227
2022-11-25T22:09:04.441Z,1247
2022-11-25T22:14:23.168Z,1261
2022-11-25T22:19:41.897Z,1278
2022-11-25T22:25:00.410Z,1310
2022-11-25T22:30:18.881Z,1302
2022-11-25T22:35:37.082Z,1305
2022-11-25T22:40:55.604Z,1299
2022-11-25T22:46:14.455Z,1309
2022-11-25T22:51:33.319Z,1321
2022-11-25T22:56:52.084Z,1325
2022-11-25T23:02:10.911Z,1316
2022-11-25T23:07:28.974Z,1329
2022-11-25T23:12:47.850Z,1322
2022-11-25T23:18:06.296Z,1332
2022-11-25T23:23:24.800Z,1317
2022-11-25T23:28:43.326Z,1314
2022-11-25T23:34:02.064Z,1318
2022-11-25T23:39:20.268Z,1336
2022-11-25T23:44:38.391Z,1326
2022-11-25T23:49:57.546Z,1326
2022-11-25T23:55:16.321Z,1331
